Time;durP1;ratioP1;P1;durP2;ratioP2;P2;SDS_P1;SDS_P2;PMS_P1;PMS_P2;Temp;Humidity;BMP_temperature;BMP_pressure;BME280_temperature;BME280_humidity;BME280_pressure;Samples;Min_cycle;Max_cycle;Signal;HPM_P1;HPM_P2
2023/07/03 00:01:07;;;;;;;;;;;;;;;17.01;45.99;100130.78;5076190;28;1121;-53
2023/07/03 00:03:33;;;;;;;;;;;;;;;17.01;45.59;100138.19;5075799;28;1134;-53
2023/07/03 00:05:58;;;;;;;;;;;;;;;18.10;46.83;100141.97;5079258;28;1071;-53
2023/07/03 00:08:24;;;;;;;;;;;;;;;17.48;47.54;100133.75;5079250;28;1237;-54
2023/07/03 00:10:49;;;;;;;;;;;;;;;17.31;46.84;100142.50;5078982;28;1905;-54
2023/07/03 00:13:14;;;;;;;;;;;;;;;17.27;46.46;100138.69;5079078;28;1023;-55
2023/07/03 00:15:40;;;;;;;;;;;;;;;17.18;45.79;100135.78;5079778;28;1159;-54
2023/07/03 00:18:06;;;;;;;;;;;;;;;17.15;45.79;100132.78;5078688;28;1177;-53
2023/07/03 00:20:31;;;;;;;;;;;;;;;17.04;45.56;100132.94;5079188;28;1505;-53
2023/07/03 00:22:57;;;;;;;;;;;;;;;17.03;45.41;100135.97;5078757;28;1102;-55
2023/07/03 00:25:22;;;;;;;;;;;;;;;17.07;45.19;100142.53;5078950;28;1070;-55
2023/07/03 00:27:48;;;;;;;;;;;;;;;16.92;45.32;100146.25;5079055;28;1082;-55
2023/07/03 00:30:14;;;;;;;;;;;;;;;16.95;45.28;100145.66;5078751;28;1910;-54
2023/07/03 00:32:39;;;;;;;;;;;;;;;16.98;44.93;100161.53;5078927;28;1257;-53
2023/07/03 00:35:06;;;;;;;;;;;;;;;17.00;44.79;100155.75;5078906;28;1295;-51
2023/07/03 00:37:32;;;;;;;;;;;;;;;16.83;45.30;100157.03;5061568;28;1202;-53
2023/07/03 00:39:57;;;;;;;;;;;;;;;16.95;44.80;100156.63;5079484;28;1170;-53
2023/07/03 00:42:25;;;;;;;;;;;;;;;16.90;44.99;100153.94;5078390;28;1086;-56
2023/07/03 00:44:50;;;;;;;;;;;;;;;17.76;46.38;100159.47;5078671;28;1031;-53
2023/07/03 00:47:16;;;;;;;;;;;;;;;17.24;46.78;100151.09;5060668;28;1316;-56
2023/07/03 00:49:41;;;;;;;;;;;;;;;17.07;46.81;100148.81;5060919;28;1902;-54
2023/07/03 00:52:07;;;;;;;;;;;;;;;17.19;45.78;100144.84;5060033;28;1165;-54
2023/07/03 00:54:32;;;;;;;;;;;;;;;17.08;45.85;100142.22;5078538;28;1039;-55
2023/07/03 00:56:58;;;;;;;;;;;;;;;16.98;45.37;100147.81;5078501;28;1142;-53
2023/07/03 00:59:23;;;;;;;;;;;;;;;16.98;45.65;100150.56;5060537;28;1064;-53
2023/07/03 01:01:52;;;;;;;;;;;;;;;17.03;44.98;100146.97;5078388;28;1118;-55
2023/07/03 01:04:19;;;;;;;;;;;;;;;16.93;45.27;100143.19;5078170;28;1178;-54
2023/07/03 01:06:51;;;;;;;;;;;;;;;16.97;44.99;100143.44;5060798;28;1174;-55
2023/07/03 01:09:17;;;;;;;;;;;;;;;16.91;45.22;100139.94;5060973;28;1052;-51
2023/07/03 01:11:44;;;;;;;;;;;;;;;16.89;44.97;100136.66;5060282;28;1981;-54
2023/07/03 01:14:10;;;;;;;;;;;;;;;16.90;45.05;100140.22;5060482;28;1051;-52
2023/07/03 01:16:35;;;;;;;;;;;;;;;16.84;44.95;100144.91;5059692;28;1190;-53
2023/07/03 01:19:02;;;;;;;;;;;;;;;16.79;45.20;100135.91;5060249;28;1141;-53
2023/07/03 01:21:39;;;;;;;;;;;;;;;16.84;44.81;100131.19;5060208;28;1166;-55
2023/07/03 01:24:07;;;;;;;;;;;;;;;16.83;44.63;100137.81;5060179;28;1186;-52
2023/07/03 01:26:33;;;;;;;;;;;;;;;17.43;46.37;100140.16;5060051;28;1229;-55
2023/07/03 01:28:58;;;;;;;;;;;;;;;17.03;46.78;100146.97;5078227;28;1118;-56
2023/07/03 01:31:24;;;;;;;;;;;;;;;17.03;46.08;100142.28;5059325;28;1969;-54
2023/07/03 01:33:50;;;;;;;;;;;;;;;16.97;45.45;100148.94;5059894;28;1031;-55
2023/07/03 01:36:15;;;;;;;;;;;;;;;16.92;45.41;100149.00;5060263;28;1250;-55
2023/07/03 01:38:44;;;;;;;;;;;;;;;16.97;45.05;100146.19;5059652;28;1552;-52
2023/07/03 01:41:10;;;;;;;;;;;;;;;16.85;44.99;100152.03;5059932;28;1087;-55
2023/07/03 01:43:36;;;;;;;;;;;;;;;16.84;45.02;100152.34;5049225;28;1467;-53
2023/07/03 01:46:01;;;;;;;;;;;;;;;16.85;44.92;100156.72;5030213;28;1553;-54
2023/07/03 01:48:29;;;;;;;;;;;;;;;16.75;45.01;100152.16;5077808;28;1255;-51
2023/07/03 01:50:55;;;;;;;;;;;;;;;16.79;45.11;100155.97;5077424;28;1906;-52
2023/07/03 01:53:24;;;;;;;;;;;;;;;16.73;44.83;100163.44;5077179;28;1006;-53
2023/07/03 01:55:52;;;;;;;;;;;;;;;16.78;44.69;100162.56;5058844;28;878;-56
2023/07/03 01:58:32;;;;;;;;;;;;;;;17.73;46.19;100162.84;5059497;28;1031;-53
2023/07/03 02:01:02;;;;;;;;;;;;;;;17.16;46.68;100173.72;5059644;28;1143;-55
2023/07/03 02:03:33;;;;;;;;;;;;;;;17.03;46.33;100174.44;5059505;28;1826;-52
2023/07/03 02:06:09;;;;;;;;;;;;;;;16.94;46.03;100176.97;5076863;28;1127;-51
2023/07/03 02:08:34;;;;;;;;;;;;;;;16.94;45.48;100176.97;5059119;28;912;-54
2023/07/03 02:11:01;;;;;;;;;;;;;;;16.91;45.32;100172.91;5059313;28;1910;-56
2023/07/03 02:13:27;;;;;;;;;;;;;;;17.78;46.18;100179.28;5059283;28;1213;-56
2023/07/03 02:15:55;;;;;;;;;;;;;;;17.22;46.63;100177.22;5058879;28;1265;-52
2023/07/03 02:18:20;;;;;;;;;;;;;;;17.09;46.32;100179.53;5076321;28;1042;-56
2023/07/03 02:20:49;;;;;;;;;;;;;;;16.97;46.27;100179.16;5058871;28;1416;-55
2023/07/03 02:23:15;;;;;;;;;;;;;;;17.00;45.89;100175.81;5076722;28;1115;-53
2023/07/03 02:25:43;;;;;;;;;;;;;;;16.91;45.31;100180.31;5076533;28;1147;-56
2023/07/03 02:28:09;;;;;;;;;;;;;;;16.99;45.14;100190.66;5063173;28;1007;-52
2023/07/03 02:30:34;;;;;;;;;;;;;;;16.85;45.38;100184.19;5076475;28;1961;-55
2023/07/03 02:33:00;;;;;;;;;;;;;;;16.89;44.98;100180.59;5077138;28;1149;-53
2023/07/03 02:35:26;;;;;;;;;;;;;;;17.21;45.53;100186.59;5076756;28;1038;-56
2023/07/03 02:37:51;;;;;;;;;;;;;;;17.44;46.48;100185.75;5063155;28;1073;-53
2023/07/03 02:40:17;;;;;;;;;;;;;;;17.09;46.62;100190.53;5077023;28;1099;-51
2023/07/03 02:42:42;;;;;;;;;;;;;;;16.99;46.35;100196.16;5076136;28;1114;-55
2023/07/03 02:45:09;;;;;;;;;;;;;;;17.03;45.73;100197.22;5058808;28;1490;-49
2023/07/03 02:47:35;;;;;;;;;;;;;;;16.97;45.71;100192.06;5057942;28;1164;-54
2023/07/03 02:50:02;;;;;;;;;;;;;;;17.03;45.37;100202.69;5058441;28;1902;-53
2023/07/03 02:52:28;;;;;;;;;;;;;;;16.90;45.45;100195.13;5058645;28;1213;-53
2023/07/03 02:54:54;;;;;;;;;;;;;;;16.90;44.99;100197.88;5076154;28;1144;-53
2023/07/03 02:57:19;;;;;;;;;;;;;;;16.91;44.96;100199.53;5058208;28;1222;-55
2023/07/03 02:59:45;;;;;;;;;;;;;;;16.91;44.91;100197.63;5058605;28;1252;-52
2023/07/03 03:02:12;;;;;;;;;;;;;;;16.87;44.91;100203.94;5058565;28;1499;-53
2023/07/03 03:04:37;;;;;;;;;;;;;;;16.81;45.06;100196.84;5076825;28;1106;-54
2023/07/03 03:07:03;;;;;;;;;;;;;;;16.82;44.80;100198.50;5057841;28;1107;-55
2023/07/03 03:09:29;;;;;;;;;;;;;;;17.38;46.48;100203.41;5076555;28;1069;-53
2023/07/03 03:11:54;;;;;;;;;;;;;;;17.14;46.43;100205.34;5058426;28;1910;-53
2023/07/03 03:14:20;;;;;;;;;;;;;;;17.05;46.08;100208.72;5057907;28;1866;-52
2023/07/03 03:16:46;;;;;;;;;;;;;;;16.95;45.75;100203.34;5057732;28;1115;-52
2023/07/03 03:19:11;;;;;;;;;;;;;;;16.88;45.42;100205.56;5058146;28;1159;-52
2023/07/03 03:21:38;;;;;;;;;;;;;;;16.93;45.33;100202.81;5076091;28;1208;-51
2023/07/03 03:24:03;;;;;;;;;;;;;;;17.13;45.74;100206.47;5058165;28;1110;-53
2023/07/03 03:26:29;;;;;;;;;;;;;;;17.64;46.87;100197.59;5058193;28;1339;-51
2023/07/03 03:28:54;;;;;;;;;;;;;;;17.20;47.06;100206.94;5075672;28;1237;-50
2023/07/03 03:31:20;;;;;;;;;;;;;;;17.16;46.40;100209.44;5075703;28;1972;-52
2023/07/03 03:33:52;;;;;;;;;;;;;;;17.15;45.94;100207.78;5058220;28;1370;-48
2023/07/03 03:36:17;;;;;;;;;;;;;;;17.02;45.84;100205.75;5076042;28;1074;-53
2023/07/03 03:38:43;;;;;;;;;;;;;;;17.05;45.42;100210.66;5058133;28;1382;-53
2023/07/03 03:41:09;;;;;;;;;;;;;;;16.93;45.35;100198.13;5079880;28;1121;-53
2023/07/03 03:43:38;;;;;;;;;;;;;;;16.93;45.33;100206.38;5061859;28;1362;-55
2023/07/03 03:46:04;;;;;;;;;;;;;;;16.91;45.41;100216.00;5062139;28;1245;-50
2023/07/03 03:48:32;;;;;;;;;;;;;;;17.08;47.41;100212.81;5061564;28;1308;-52
2023/07/03 03:51:00;;;;;;;;;;;;;;;17.17;49.88;100211.06;5061803;28;1969;-52
2023/07/03 03:53:27;;;;;;;;;;;;;;;17.13;50.13;100212.75;5061092;28;1226;-52
2023/07/03 03:55:53;;;;;;;;;;;;;;;17.19;48.74;100205.28;5069952;28;1086;-54
2023/07/03 03:58:19;;;;;;;;;;;;;;;17.08;47.87;100210.91;5061777;28;1310;-53
2023/07/03 04:00:44;;;;;;;;;;;;;;;17.08;47.15;100210.91;5079582;28;1249;-53
2023/07/03 04:03:10;;;;;;;;;;;;;;;17.09;46.44;100211.72;5079541;28;1133;-53
2023/07/03 04:05:36;;;;;;;;;;;;;;;17.01;46.50;100210.44;5079138;28;1150;-54
2023/07/03 04:08:01;;;;;;;;;;;;;;;17.02;46.22;100206.53;5079016;28;1505;-52
2023/07/03 04:10:27;;;;;;;;;;;;;;;16.94;46.17;100204.44;5078879;28;1905;-56
2023/07/03 04:12:52;;;;;;;;;;;;;;;16.93;46.04;100206.38;5079389;28;1058;-57
2023/07/03 04:15:18;;;;;;;;;;;;;;;16.91;45.65;100205.00;5078978;28;1250;-58
2023/07/03 04:17:43;;;;;;;;;;;;;;;16.88;45.82;100205.56;5079393;28;1109;-56
2023/07/03 04:20:13;;;;;;;;;;;;;;;16.80;45.90;100208.94;5078692;28;1047;-57
2023/07/03 04:22:39;;;;;;;;;;;;;;;17.68;46.91;100217.06;5061788;28;1517;-54
2023/07/03 04:25:05;;;;;;;;;;;;;;;17.33;47.76;100224.63;5079481;28;1154;-53
2023/07/03 04:27:30;;;;;;;;;;;;;;;17.22;47.22;100221.19;5079263;28;1324;-56
2023/07/03 04:29:56;;;;;;;;;;;;;;;17.13;46.86;100222.94;5078689;28;1901;-54
2023/07/03 04:32:21;;;;;;;;;;;;;;;17.05;46.66;100222.44;5077389;28;1059;-49
2023/07/03 04:34:47;;;;;;;;;;;;;;;17.05;46.28;100227.94;5078131;28;1222;-53
2023/07/03 04:37:13;;;;;;;;;;;;;;;17.04;46.15;100236.47;5078835;28;1246;-51
2023/07/03 04:39:39;;;;;;;;;;;;;;;17.03;45.95;100243.09;5078626;28;1210;-52
2023/07/03 04:42:04;;;;;;;;;;;;;;;16.97;45.94;100242.31;5078852;28;1151;-53
2023/07/03 04:44:33;;;;;;;;;;;;;;;16.89;46.08;100235.53;5078688;28;1078;-52
2023/07/03 04:47:04;;;;;;;;;;;;;;;17.00;45.60;100236.25;5071115;28;1373;-51
2023/07/03 04:49:30;;;;;;;;;;;;;;;16.92;45.81;100247.84;5078477;28;1128;-49
2023/07/03 04:51:56;;;;;;;;;;;;;;;16.97;45.71;100247.81;5077905;28;1979;-53
2023/07/03 04:54:22;;;;;;;;;;;;;;;18.23;44.69;100244.97;5078452;28;1249;-55
2023/07/03 04:56:48;;;;;;;;;;;;;;;17.74;46.47;100255.22;5078190;28;1130;-54
2023/07/03 04:59:14;;;;;;;;;;;;;;;17.53;47.40;100254.66;5078460;28;1098;-50
2023/07/03 05:01:42;;;;;;;;;;;;;;;17.43;48.11;100258.34;5078165;28;1090;-56
2023/07/03 05:04:08;;;;;;;;;;;;;;;17.36;48.51;100268.84;5078825;28;1162;-53
2023/07/03 05:06:34;;;;;;;;;;;;;;;17.31;49.04;100262.59;5078416;28;1158;-50
2023/07/03 05:08:59;;;;;;;;;;;;;;;17.21;49.31;100261.59;5078295;28;895;-48
2023/07/03 05:11:25;;;;;;;;;;;;;;;17.20;49.60;100270.13;5078197;28;1902;-51
2023/07/03 05:13:50;;;;;;;;;;;;;;;17.15;50.12;100278.41;5078747;28;1086;-49
2023/07/03 05:16:16;;;;;;;;;;;;;;;17.12;50.08;100270.75;5078208;28;1040;-51
2023/07/03 05:18:41;;;;;;;;;;;;;;;17.11;50.36;100278.19;5078008;28;1098;-47
2023/07/03 05:21:07;;;;;;;;;;;;;;;17.07;50.92;100277.94;5066407;28;1205;-48
2023/07/03 05:23:32;;;;;;;;;;;;;;;17.03;51.17;100276.88;5058285;28;1356;-49
2023/07/03 05:25:58;;;;;;;;;;;;;;;16.95;51.62;100274.75;5071780;28;1138;-50
2023/07/03 05:28:24;;;;;;;;;;;;;;;16.95;51.89;100276.69;5077552;28;1097;-54
2023/07/03 05:30:56;;;;;;;;;;;;;;;16.96;51.95;100281.03;5065004;28;1910;-52
2023/07/03 05:33:21;;;;;;;;;;;;;;;16.91;52.31;100276.41;5066027;28;852;-52
2023/07/03 05:35:47;;;;;;;;;;;;;;;16.89;52.20;100275.91;5042994;28;1514;-51
2023/07/03 05:38:12;;;;;;;;;;;;;;;16.88;52.60;100279.72;5047639;28;1332;-53
2023/07/03 05:40:38;;;;;;;;;;;;;;;16.84;52.50;100287.69;5077799;28;1150;-48
2023/07/03 05:43:03;;;;;;;;;;;;;;;16.83;52.76;100286.06;5076691;28;1182;-53
2023/07/03 05:45:29;;;;;;;;;;;;;;;16.82;52.95;100294.59;5070153;28;848;-52
2023/07/03 05:47:54;;;;;;;;;;;;;;;16.79;53.05;100289.66;5071727;28;1162;-47
2023/07/03 05:50:20;;;;;;;;;;;;;;;16.77;52.95;100295.44;5069168;28;1982;-49
2023/07/03 05:52:46;;;;;;;;;;;;;;;16.81;53.05;100293.78;5073349;28;1192;-55
2023/07/03 05:55:11;;;;;;;;;;;;;;;16.79;53.20;100295.16;5057650;28;1489;-51
2023/07/03 05:57:37;;;;;;;;;;;;;;;16.74;53.29;100302.31;5070242;28;1064;-53
2023/07/03 06:00:10;;;;;;;;;;;;;;;16.72;53.51;100301.81;5064236;28;1126;-52
2023/07/03 06:02:38;;;;;;;;;;;;;;;16.73;53.56;100303.44;5072255;28;1083;-49
2023/07/03 06:05:03;;;;;;;;;;;;;;;16.76;53.56;100315.78;5060022;28;1218;-50
2023/07/03 06:07:29;;;;;;;;;;;;;;;16.69;53.79;100310.63;5070485;28;1076;-52
2023/07/03 06:09:54;;;;;;;;;;;;;;;16.72;53.94;100318.28;5056965;28;1914;-54
2023/07/03 06:12:20;;;;;;;;;;;;;;;16.69;53.96;100313.38;5060942;28;1114;-52
2023/07/03 06:14:45;;;;;;;;;;;;;;;16.68;54.16;100316.41;5066126;28;1103;-51
2023/07/03 06:17:11;;;;;;;;;;;;;;;16.66;54.12;100308.44;5056907;28;1116;-49
2023/07/03 06:19:36;;;;;;;;;;;;;;;16.69;53.91;100312.53;5076343;28;1121;-47
2023/07/03 06:22:02;;;;;;;;;;;;;;;16.69;54.03;100316.09;5065010;28;1023;-54
2023/07/03 06:24:28;;;;;;;;;;;;;;;16.69;54.36;100305.13;5066138;28;1150;-49
2023/07/03 06:26:53;;;;;;;;;;;;;;;16.68;54.08;100308.16;5074258;28;1126;-56
2023/07/03 06:29:19;;;;;;;;;;;;;;;16.68;54.47;100310.91;5072011;28;1099;-56
2023/07/03 06:31:45;;;;;;;;;;;;;;;16.65;54.42;100306.81;5056918;28;1914;-54
2023/07/03 06:34:10;;;;;;;;;;;;;;;16.64;54.70;100309.84;5071481;28;1079;-48
2023/07/03 06:36:36;;;;;;;;;;;;;;;16.60;54.63;100302.16;5064088;28;1302;-51
2023/07/03 06:39:04;;;;;;;;;;;;;;;16.63;54.64;100295.28;5073784;28;1249;-52
2023/07/03 06:41:30;;;;;;;;;;;;;;;16.63;54.58;100309.00;5076130;28;1027;-49
2023/07/03 06:43:57;;;;;;;;;;;;;;;16.63;54.90;100313.69;5062755;28;1074;-55
2023/07/03 06:46:22;;;;;;;;;;;;;;;16.67;54.89;100309.25;5076531;28;1030;-56
2023/07/03 06:48:48;;;;;;;;;;;;;;;16.62;54.74;100314.78;5072422;28;1157;-53
2023/07/03 06:51:13;;;;;;;;;;;;;;;16.57;55.17;100307.41;5067751;28;1967;-52
2023/07/03 06:53:39;;;;;;;;;;;;;;;16.62;55.33;100318.38;5075957;28;1079;-55
2023/07/03 06:56:05;;;;;;;;;;;;;;;16.63;55.56;100313.69;5066543;28;1130;-54
2023/07/03 06:58:30;;;;;;;;;;;;;;;16.58;55.54;100318.09;5058535;28;1358;-51
2023/07/03 07:00:56;;;;;;;;;;;;;;;16.60;55.66;100323.31;5069972;28;1186;-49
2023/07/03 07:03:22;;;;;;;;;;;;;;;16.56;55.66;100330.47;5076072;28;1218;-54
2023/07/03 07:05:48;;;;;;;;;;;;;;;16.53;55.72;100337.34;5069644;28;1349;-51
2023/07/03 07:08:16;;;;;;;;;;;;;;;16.53;55.79;100333.78;5073468;28;1186;-53
2023/07/03 07:10:42;;;;;;;;;;;;;;;16.49;55.76;100325.28;5066419;28;1898;-52
2023/07/03 07:13:08;;;;;;;;;;;;;;;16.53;55.76;100342.00;5073762;28;1130;-55
2023/07/03 07:15:39;;;;;;;;;;;;;;;16.53;55.45;100331.03;5065038;28;1320;-52
2023/07/03 07:18:05;;;;;;;;;;;;;;;16.53;55.37;100342.81;5070730;28;1261;-48
2023/07/03 07:20:35;;;;;;;;;;;;;;;16.53;55.56;100342.00;5056062;28;1228;-49
2023/07/03 07:23:01;;;;;;;;;;;;;;;16.49;55.45;100340.94;5063073;28;1067;-49
2023/07/03 07:25:27;;;;;;;;;;;;;;;16.52;55.25;100343.09;5055504;28;1261;-47
2023/07/03 07:27:52;;;;;;;;;;;;;;;16.54;55.28;100347.22;5060954;28;1162;-52
2023/07/03 07:30:17;;;;;;;;;;;;;;;16.51;55.38;100346.94;5074288;28;1905;-53
2023/07/03 07:32:44;;;;;;;;;;;;;;;16.50;55.50;100348.06;5068320;28;1150;-52
2023/07/03 07:35:09;;;;;;;;;;;;;;;16.53;55.59;100347.50;5044900;28;1146;-51
2023/07/03 07:37:35;;;;;;;;;;;;;;;16.53;55.85;100342.81;5057700;28;1036;-50
2023/07/03 07:40:00;;;;;;;;;;;;;;;16.49;55.58;100338.19;5075842;28;1024;-50
2023/07/03 07:42:27;;;;;;;;;;;;;;;16.50;55.74;100353.56;5075611;28;1061;-50
2023/07/03 07:44:52;;;;;;;;;;;;;;;16.51;55.75;100355.19;5075434;28;1058;-51
2023/07/03 07:47:18;;;;;;;;;;;;;;;16.51;55.61;100349.69;5075546;28;1209;-51
2023/07/03 07:49:44;;;;;;;;;;;;;;;16.50;55.61;100353.56;5076016;28;1086;-50
2023/07/03 07:52:10;;;;;;;;;;;;;;;16.49;55.62;100351.91;5075702;28;1913;-52
2023/07/03 07:54:35;;;;;;;;;;;;;;;16.47;55.71;100363.19;5061785;28;1313;-52
2023/07/03 07:57:01;;;;;;;;;;;;;;;16.46;55.77;100368.94;5061474;28;1119;-51
2023/07/03 07:59:27;;;;;;;;;;;;;;;16.50;55.62;100370.03;5074033;28;996;-51
2023/07/03 08:01:52;;;;;;;;;;;;;;;16.47;55.71;100376.09;5075996;28;1066;-56
2023/07/03 08:04:18;;;;;;;;;;;;;;;16.46;55.63;100374.44;5075666;28;1159;-51
2023/07/03 08:06:43;;;;;;;;;;;;;;;16.41;55.92;100378.84;5075537;28;1123;-56
2023/07/03 08:09:08;;;;;;;;;;;;;;;16.47;55.70;100370.59;5075579;28;1035;-53
2023/07/03 08:11:34;;;;;;;;;;;;;;;16.47;55.88;100387.88;5075359;28;1914;-52
2023/07/03 08:13:59;;;;;;;;;;;;;;;16.45;55.90;100386.50;5074366;28;1218;-51
2023/07/03 08:16:25;;;;;;;;;;;;;;;16.46;55.98;100382.69;5075363;28;1265;-51
2023/07/03 08:18:50;;;;;;;;;;;;;;;16.45;56.23;100389.25;5075747;28;1114;-56
2023/07/03 08:21:16;;;;;;;;;;;;;;;16.45;56.32;100383.78;5075397;28;1066;-54
2023/07/03 08:23:41;;;;;;;;;;;;;;;16.45;55.93;100390.06;5075625;28;1034;-56
2023/07/03 08:26:07;;;;;;;;;;;;;;;16.46;56.11;100408.19;5076717;28;1019;-49
2023/07/03 08:28:32;;;;;;;;;;;;;;;16.43;55.99;100408.75;5079144;28;1113;-50
2023/07/03 08:30:58;;;;;;;;;;;;;;;16.36;56.03;100392.59;5079133;28;1986;-50
2023/07/03 08:33:24;;;;;;;;;;;;;;;16.36;55.99;100406.31;5079033;28;1111;-55
2023/07/03 08:35:49;;;;;;;;;;;;;;;16.29;56.09;100397.56;5078987;28;1134;-57
2023/07/03 08:38:15;;;;;;;;;;;;;;;16.31;56.18;100400.84;5079094;28;1101;-54
2023/07/03 08:40:41;;;;;;;;;;;;;;;16.29;56.02;100397.56;5079033;28;1264;-54
2023/07/03 08:43:08;;;;;;;;;;;;;;;16.25;55.88;100407.47;5079113;28;1154;-54
2023/07/03 08:45:35;;;;;;;;;;;;;;;16.23;55.83;100393.22;5060973;28;1110;-55
2023/07/03 08:48:01;;;;;;;;;;;;;;;16.22;55.80;100397.06;5060749;28;1111;-55
2023/07/03 08:50:26;;;;;;;;;;;;;;;16.19;55.92;100397.63;5078124;28;1909;-53
2023/07/03 08:52:53;;;;;;;;;;;;;;;16.14;56.04;100405.84;5060988;28;1281;-53
2023/07/03 08:55:20;;;;;;;;;;;;;;;16.21;55.65;100417.34;5060664;28;1080;-56
2023/07/03 08:57:46;;;;;;;;;;;;;;;16.18;55.86;100431.63;5060131;28;1310;-54
2023/07/03 09:00:12;;;;;;;;;;;;;;;16.14;56.03;100425.88;5078170;28;1533;-55
2023/07/03 09:02:43;;;;;;;;;;;;;;;16.13;55.93;100428.88;5078248;28;1293;-53
2023/07/03 09:05:09;;;;;;;;;;;;;;;16.16;55.78;100425.59;5060198;28;1234;-53
2023/07/03 09:07:37;;;;;;;;;;;;;;;16.12;55.76;100419.84;5077991;28;1202;-53
2023/07/03 09:10:15;;;;;;;;;;;;;;;16.12;55.76;100424.50;5059747;28;1977;-53
2023/07/03 09:12:42;;;;;;;;;;;;;;;16.07;55.99;100423.44;5078418;28;1175;-53
2023/07/03 09:15:23;;;;;;;;;;;;;;;16.08;55.90;100421.50;5077590;28;1138;-54
2023/07/03 09:17:48;;;;;;;;;;;;;;;16.08;55.66;100429.72;5077384;28;1083;-50
2023/07/03 09:20:14;;;;;;;;;;;;;;;16.06;55.74;100424.53;5078041;28;1194;-51
2023/07/03 09:22:49;;;;;;;;;;;;;;;16.00;55.91;100422.88;5076771;28;1062;-51
2023/07/03 09:25:17;;;;;;;;;;;;;;;16.05;55.70;100413.84;5078254;28;1062;-54
2023/07/03 09:27:44;;;;;;;;;;;;;;;16.01;55.63;100410.81;5078296;28;1110;-54
2023/07/03 09:30:09;;;;;;;;;;;;;;;16.01;55.61;100402.59;5077831;28;1982;-52
2023/07/03 09:32:35;;;;;;;;;;;;;;;15.98;55.66;100385.91;5059958;28;1008;-53
2023/07/03 09:35:13;;;;;;;;;;;;;;;15.93;55.81;100380.41;5077663;28;1134;-51
2023/07/03 09:37:43;;;;;;;;;;;;;;;15.95;55.90;100362.59;5064742;28;1111;-48
2023/07/03 09:40:13;;;;;;;;;;;;;;;15.95;55.80;100369.97;5077862;28;1000;-54
2023/07/03 09:42:39;;;;;;;;;;;;;;;15.92;55.76;100365.88;5059781;28;1150;-56
2023/07/03 09:45:11;;;;;;;;;;;;;;;15.90;55.99;100370.81;5077274;28;1253;-55
2023/07/03 09:47:37;;;;;;;;;;;;;;;15.88;55.71;100367.56;5077315;28;1127;-53
2023/07/03 09:50:05;;;;;;;;;;;;;;;15.89;55.92;100372.75;5075519;28;1976;-55
2023/07/03 09:52:31;;;;;;;;;;;;;;;16.10;56.04;100377.34;5048906;28;1159;-54
2023/07/03 09:54:57;;;;;;;;;;;;;;;15.96;56.52;100380.66;5077299;28;1150;-50
2023/07/03 09:57:23;;;;;;;;;;;;;;;15.95;56.19;100384.53;5059421;28;1221;-53
2023/07/03 09:59:49;;;;;;;;;;;;;;;15.91;56.13;100387.00;5076819;28;853;-54
2023/07/03 10:02:14;;;;;;;;;;;;;;;15.88;56.06;100386.75;5077481;28;948;-50
2023/07/03 10:04:46;;;;;;;;;;;;;;;15.89;56.21;100399.34;5077390;28;1111;-49
2023/07/03 10:07:15;;;;;;;;;;;;;;;15.91;56.07;100402.63;5077636;28;1003;-53
2023/07/03 10:09:41;;;;;;;;;;;;;;;15.88;56.20;100403.19;5077239;28;1031;-50
2023/07/03 10:12:13;;;;;;;;;;;;;;;15.89;55.92;100399.34;5076796;28;1981;-54
2023/07/03 10:14:41;;;;;;;;;;;;;;;15.90;56.07;100400.97;5077189;28;1215;-55
2023/07/03 10:17:12;;;;;;;;;;;;;;;15.87;56.07;100402.34;5058812;28;1079;-56
2023/07/03 10:19:38;;;;;;;;;;;;;;;15.86;55.85;100397.16;5059884;28;1158;-56
2023/07/03 10:22:04;;;;;;;;;;;;;;;15.85;56.22;100404.56;5076744;28;1066;-56
2023/07/03 10:24:32;;;;;;;;;;;;;;;15.89;55.93;100402.06;5059383;28;1155;-51
2023/07/03 10:26:57;;;;;;;;;;;;;;;15.86;55.85;100400.69;5077422;28;1229;-56
2023/07/03 10:29:26;;;;;;;;;;;;;;;15.87;55.99;100396.06;5059186;28;1072;-56
2023/07/03 10:31:54;;;;;;;;;;;;;;;15.84;56.33;100402.09;5057835;28;1909;-54
2023/07/03 10:34:24;;;;;;;;;;;;;;;15.85;56.05;100410.06;5075267;28;1139;-53
2023/07/03 10:36:50;;;;;;;;;;;;;;;15.86;56.24;100402.63;5074253;28;981;-54
2023/07/03 10:39:20;;;;;;;;;;;;;;;15.83;56.10;100403.19;5059441;28;1119;-51
2023/07/03 10:41:46;;;;;;;;;;;;;;;15.89;56.21;100408.41;5058172;28;1486;-54
2023/07/03 10:44:13;;;;;;;;;;;;;;;15.85;56.34;100414.69;5075713;28;1098;-53
2023/07/03 10:46:41;;;;;;;;;;;;;;;15.87;56.22;100407.03;5075264;28;1007;-51
2023/07/03 10:49:08;;;;;;;;;;;;;;;15.89;56.07;100408.41;5075153;28;1158;-48
2023/07/03 10:51:38;;;;;;;;;;;;;;;15.90;56.05;100406.47;5075327;28;1905;-51
2023/07/03 10:54:11;;;;;;;;;;;;;;;15.85;56.16;100401.81;5058813;28;1212;-52
2023/07/03 10:56:44;;;;;;;;;;;;;;;15.87;56.17;100390.56;5058369;28;1099;-54
2023/07/03 10:59:22;;;;;;;;;;;;;;;15.82;56.30;100396.06;5058209;28;1067;-50
2023/07/03 11:02:08;;;;;;;;;;;;;;;15.84;56.20;100397.44;5076718;28;1050;-50
2023/07/03 11:04:52;;;;;;;;;;;;;;;15.83;56.19;100403.19;5016104;28;1263;-53
2023/07/03 11:07:21;;;;;;;;;;;;;;;15.87;56.21;100390.56;5046867;28;1103;-51
2023/07/03 11:10:02;;;;;;;;;;;;;;;15.85;56.36;100392.75;5057837;28;1506;-51
2023/07/03 11:12:32;;;;;;;;;;;;;;;15.87;56.28;100404.28;5075795;28;1241;-51
2023/07/03 11:15:05;;;;;;;;;;;;;;;15.84;56.27;100402.09;5058136;28;1243;-49
2023/07/03 11:17:43;;;;;;;;;;;;;;;15.85;56.24;100403.72;5076028;28;1222;-48
2023/07/03 11:20:09;;;;;;;;;;;;;;;15.84;56.21;100404.84;5057485;28;1135;-53
2023/07/03 11:22:47;;;;;;;;;;;;;;;15.80;56.35;100396.34;5075575;28;1293;-53
2023/07/03 11:25:13;;;;;;;;;;;;;;;15.85;56.21;100400.97;5056503;28;1246;-52
2023/07/03 11:27:41;;;;;;;;;;;;;;;15.82;56.33;100398.81;5075586;28;1241;-50
2023/07/03 11:30:07;;;;;;;;;;;;;;;15.85;55.92;100404.56;5075540;28;1909;-51
2023/07/03 11:32:35;;;;;;;;;;;;;;;15.83;56.16;100400.47;5075594;28;1264;-49
2023/07/03 11:35:01;;;;;;;;;;;;;;;15.80;56.07;100396.34;5075214;28;1225;-51
2023/07/03 11:37:27;;;;;;;;;;;;;;;15.80;56.28;100390.06;5057693;28;1257;-53
2023/07/03 11:39:53;;;;;;;;;;;;;;;15.79;56.21;100410.31;5075723;28;1352;-53
2023/07/03 11:42:22;;;;;;;;;;;;;;;15.85;56.10;100410.06;5057857;28;1234;-51
2023/07/03 11:44:47;;;;;;;;;;;;;;;15.85;56.13;100409.22;5075348;28;1221;-53
2023/07/03 11:47:25;;;;;;;;;;;;;;;15.84;56.34;100416.63;5075511;28;1328;-51
2023/07/03 11:49:54;;;;;;;;;;;;;;;15.88;56.13;100414.16;5075843;28;1269;-54
2023/07/03 11:52:25;;;;;;;;;;;;;;;15.80;56.35;100412.78;5076379;28;1913;-52
2023/07/03 11:54:57;;;;;;;;;;;;;;;15.82;56.08;100409.78;5057631;28;1234;-51
2023/07/03 11:57:27;;;;;;;;;;;;;;;15.85;56.29;100406.47;5075588;28;1262;-54
2023/07/03 11:59:53;;;;;;;;;;;;;;;16.60;56.29;100408.41;5076140;28;1218;-49
2023/07/03 12:02:18;;;;;;;;;;;;;;;17.07;56.56;100401.53;5079421;28;1316;-48
2023/07/03 12:04:47;;;;;;;;;;;;;;;16.53;57.57;100407.88;5079598;28;1218;-52
2023/07/03 12:07:19;;;;;;;;;;;;;;;16.36;57.65;100411.78;5079724;28;1324;-51
2023/07/03 12:09:45;;;;;;;;;;;;;;;16.30;57.40;100399.22;5079042;28;1253;-49
2023/07/03 12:12:24;;;;;;;;;;;;;;;16.21;57.24;100392.66;5060823;28;1973;-49
2023/07/03 12:14:56;;;;;;;;;;;;;;;16.22;56.87;100392.38;5079303;28;1289;-51
2023/07/03 12:17:23;;;;;;;;;;;;;;;16.14;56.99;100387.47;5078763;28;1225;-53
2023/07/03 12:19:49;;;;;;;;;;;;;;;16.13;56.81;100390.50;5079424;28;1043;-57
2023/07/03 12:22:15;;;;;;;;;;;;;;;16.17;56.77;100383.34;5079149;28;1193;-57
2023/07/03 12:24:41;;;;;;;;;;;;;;;16.11;56.59;100396.25;5061487;28;858;-56
2023/07/03 12:27:06;;;;;;;;;;;;;;;16.12;56.39;100375.97;5079342;28;1162;-56
2023/07/03 12:29:33;;;;;;;;;;;;;;;16.12;56.46;100380.59;5079595;28;1095;-54
2023/07/03 12:32:05;;;;;;;;;;;;;;;16.09;56.51;100387.50;5078878;28;1917;-56
2023/07/03 12:34:31;;;;;;;;;;;;;;;16.04;56.33;100380.09;5079115;28;999;-56
2023/07/03 12:37:02;;;;;;;;;;;;;;;16.07;56.27;100387.78;5061442;28;1025;-55
2023/07/03 12:39:27;;;;;;;;;;;;;;;16.08;56.05;100375.69;5078709;28;1194;-55
2023/07/03 12:41:53;;;;;;;;;;;;;;;16.08;56.34;100375.69;5061284;28;1226;-53
2023/07/03 12:44:21;;;;;;;;;;;;;;;16.05;56.29;100380.94;5079286;28;1147;-54
2023/07/03 12:46:46;;;;;;;;;;;;;;;16.08;55.99;100364.72;5078152;28;1086;-53